Weather reports worldwide

Advertisment
Newcastle, United Kingdom (3245): temperature & dewpoint: 19.02.2020 08:00:00 - 25.02.2020 08:00:00 (GMT)Newcastle, United Kingdom (3245): wind speed: 19.02.2020 08:00:00 - 25.02.2020 08:00:00 (GMT)Newcastle, United Kingdom (3245): wind direction: 19.02.2020 08:00:00 - 25.02.2020 08:00:00 (GMT)Newcastle, United Kingdom (3245): visibility: 19.02.2020 08:00:00 - 25.02.2020 08:00:00 (GMT)
Date & Time tt [°C] td [°C] ff [km/h] ff [kn] dd vv [km]
25.02.2020 08:00:00 1,0 0,0 15 8 W 10
25.02.2020 07:00:00 2,0 1,0 18 10 W 10
25.02.2020 06:00:00 2,0 1,0 29 16 W 10
25.02.2020 05:00:00 3,0 2,0 28 15 W 10
25.02.2020 04:00:00 2,0 1,0 26 14 W 10
25.02.2020 03:00:00 3,0 2,0 35 19 W 10
25.02.2020 02:00:00 3,0 2,0 35 19 W 10
25.02.2020 01:00:00 2,0 1,0 26 14 W 10
25.02.2020 00:00:00 2,0 1,0 29 16 W 10
24.02.2020 23:00:00 3,0 1,0 37 20 W 10
24.02.2020 22:00:00 3,0 1,0 35 19 W 10
24.02.2020 21:00:00 3,0 1,0 37 20 W 10
24.02.2020 20:00:00 3,0 2,0 39 21 W 10
24.02.2020 19:00:00 4,0 3,0 35 19 W 10
24.02.2020 18:00:00 4,0 4,0 41 22 W 10
24.02.2020 17:00:00 5,0 4,0 46 25 W 6
24.02.2020 16:00:00 5,0 5,0 39 21 WSW 10
24.02.2020 15:00:00 2,0 2,0 5 3 WSW 5
24.02.2020 14:00:00 2,0 2,0 0 0 N 3,0
24.02.2020 13:00:00 2,0 2,0 4 2 - 4,5
24.02.2020 12:00:00 2,0 2,0 9 5 SE 4,5
24.02.2020 11:00:00 1,0 1,0 13 7 SE 3,5
24.02.2020 10:00:00 0,0 0,0 16 9 SE 4,0
24.02.2020 09:00:00 0,0 0,0 15 8 SE 1,0
24.02.2020 08:00:00 0,0 0,0 15 8 ESE 0,8
24.02.2020 07:00:00 0,0 0,0 11 6 SE 2,5
24.02.2020 06:00:00 0,0 0,0 8 4 SSE 3,5
24.02.2020 05:00:00 3,0 1,0 8 4 SSE 10
24.02.2020 04:00:00 3,0 1,0 5 3 - 10
24.02.2020 03:00:00 3,0 2,0 5 3 - 10
24.02.2020 02:00:00 2,0 1,0 4 2 SSE 10
24.02.2020 01:00:00 2,0 1,0 4 2 - 10
24.02.2020 00:00:00 3,0 1,0 4 2 - 10
23.02.2020 23:00:00 3,0 2,0 13 7 W 10
23.02.2020 22:00:00 3,0 1,0 18 10 W 10
23.02.2020 21:00:00 4,0 2,0 26 14 W 10
23.02.2020 20:00:00 4,0 2,0 31 17 W 10
23.02.2020 19:00:00 4,0 2,0 28 15 W 10
23.02.2020 18:00:00 4,0 1,0 34 18 W 10
23.02.2020 17:00:00 5,0 1,0 34 18 W 10
23.02.2020 16:00:00 6,0 2,0 31 17 W 10
23.02.2020 15:00:00 6,0 1,0 31 17 WNW 10
23.02.2020 14:00:00 6,0 1,0 41 22 WNW 10
23.02.2020 13:00:00 5,0 3,0 34 18 W 10
23.02.2020 12:00:00 5,0 3,0 34 18 W 10
23.02.2020 11:00:00 4,0 3,0 24 13 W 10
23.02.2020 10:00:00 3,0 3,0 18 10 W 10
23.02.2020 09:00:00 3,0 3,0 21 11 W 10
23.02.2020 08:00:00 3,0 3,0 13 7 W 9
23.02.2020 07:00:00 3,0 3,0 11 6 SW 10
23.02.2020 06:00:00 3,0 3,0 8 4 WSW 10
23.02.2020 05:00:00 3,0 3,0 13 7 SW 10
23.02.2020 04:00:00 4,0 3,0 9 5 SSW 10
23.02.2020 03:00:00 4,0 3,0 16 9 WSW 10
23.02.2020 02:00:00 4,0 3,0 13 7 SW 10
23.02.2020 01:00:00 4,0 3,0 16 9 SW 10
23.02.2020 00:00:00 3,0 3,0 13 7 WSW 10
22.02.2020 23:00:00 4,0 2,0 37 20 W 10
22.02.2020 22:00:00 4,0 1,0 29 16 WSW 10
22.02.2020 21:00:00 4,0 1,0 29 16 WSW 10
22.02.2020 20:00:00 4,0 1,0 34 18 W 10
22.02.2020 19:00:00 3,0 1,0 37 20 WSW 10
22.02.2020 18:00:00 4,0 0,0 44 24 W 10
22.02.2020 17:00:00 4,0 0,0 52 28 W 10
22.02.2020 16:00:00 4,0 1,0 48 26 W 10
22.02.2020 15:00:00 5,0 1,0 52 28 W 10
22.02.2020 14:00:00 6,0 2,0 50 27 W 10
22.02.2020 13:00:00 5,0 1,0 50 27 W 10
22.02.2020 12:00:00 6,0 0,0 50 27 W 6
22.02.2020 11:00:00 6,0 2,0 52 28 W 10
22.02.2020 10:00:00 6,0 1,0 52 28 W 10
22.02.2020 09:00:00 6,0 2,0 50 27 WSW 10
22.02.2020 08:00:00 6,0 2,0 37 20 WSW 10
22.02.2020 07:00:00 5,0 3,0 24 13 WSW 10
22.02.2020 06:00:00 5,0 4,0 34 18 WSW 10
22.02.2020 05:00:00 7,0 5,0 50 27 W 10
22.02.2020 04:00:00 7,0 6,0 50 27 WSW 8
22.02.2020 03:00:00 8,0 7,0 52 28 W 10
22.02.2020 02:00:00 9,0 9,0 29 16 SW 10
22.02.2020 01:00:00 9,0 8,0 39 21 SW 10
22.02.2020 00:00:00 9,0 8,0 34 18 SW 10
21.02.2020 23:00:00 9,0 8,0 39 21 SW 10
21.02.2020 22:00:00 9,0 8,0 29 16 SW 10
21.02.2020 21:00:00 9,0 8,0 29 16 SW 9
21.02.2020 20:00:00 9,0 7,0 35 19 SW 10
21.02.2020 19:00:00 9,0 7,0 44 24 SW 10
21.02.2020 18:00:00 9,0 7,0 41 22 WSW 10
21.02.2020 17:00:00 9,0 7,0 41 22 WSW 10
21.02.2020 16:00:00 10,0 6,0 41 22 WSW 10
21.02.2020 15:00:00 9,0 7,0 42 23 WSW 10
21.02.2020 14:00:00 10,0 6,0 42 23 WSW 10
21.02.2020 13:00:00 10,0 6,0 46 25 WSW 10
21.02.2020 12:00:00 10,0 6,0 46 25 WSW 10
21.02.2020 11:00:00 9,0 5,0 34 18 WSW 10
21.02.2020 10:00:00 8,0 5,0 29 16 SW 10
21.02.2020 09:00:00 7,0 4,0 28 15 SW 10
21.02.2020 08:00:00 6,0 3,0 24 13 SW 10
21.02.2020 07:00:00 6,0 2,0 22 12 SSW 10
21.02.2020 06:00:00 6,0 3,0 26 14 SW 10
21.02.2020 05:00:00 6,0 2,0 29 16 WSW 10
21.02.2020 04:00:00 6,0 1,0 22 12 WSW 10
21.02.2020 03:00:00 5,0 2,0 21 11 WSW 10
21.02.2020 02:00:00 5,0 2,0 26 14 WSW 10
21.02.2020 01:00:00 5,0 2,0 35 19 W 10
21.02.2020 00:00:00 4,0 2,0 34 18 WSW 10
20.02.2020 23:00:00 4,0 1,0 39 21 W 10
20.02.2020 22:00:00 4,0 1,0 34 18 W 10
20.02.2020 21:00:00 3,0 1,0 31 17 W 10
20.02.2020 20:00:00 4,0 1,0 31 17 W 10
20.02.2020 19:00:00 3,0 1,0 42 23 W 10
20.02.2020 18:00:00 3,0 0,0 37 20 WSW 10
20.02.2020 17:00:00 3,0 0,0 39 21 W 10
20.02.2020 16:00:00 4,0 1,0 35 19 W 10
20.02.2020 15:00:00 5,0 2,0 28 15 W 10
20.02.2020 14:00:00 5,0 2,0 35 19 W 9
20.02.2020 13:00:00 4,0 3,0 31 17 W 10
20.02.2020 12:00:00 4,0 3,0 26 14 W 10
20.02.2020 11:00:00 4,0 3,0 26 14 W 9
20.02.2020 10:00:00 7,0 6,0 29 16 WSW 10
20.02.2020 09:00:00 8,0 6,0 35 19 W 10
20.02.2020 08:00:00 9,0 7,0 28 15 SSW 10
20.02.2020 07:00:00 9,0 6,0 35 19 SW 10
20.02.2020 06:00:00 10,0 7,0 39 21 SW 10
20.02.2020 05:00:00 9,0 7,0 26 14 SSW 10
20.02.2020 04:00:00 9,0 7,0 18 10 SW 10
20.02.2020 03:00:00 9,0 7,0 21 11 SSW 10
20.02.2020 02:00:00 8,0 7,0 16 9 SW 10
20.02.2020 01:00:00 9,0 7,0 13 7 SSW 10
20.02.2020 00:00:00 9,0 7,0 16 9 SSW 10
19.02.2020 23:00:00 9,0 7,0 21 11 SW 10
19.02.2020 22:00:00 9,0 7,0 21 11 SW 10
19.02.2020 21:00:00 9,0 7,0 22 12 SW 10
19.02.2020 20:00:00 8,0 6,0 21 11 SSW 10
19.02.2020 19:00:00 8,0 6,0 18 10 SSW 10
19.02.2020 18:00:00 6,0 5,0 16 9 S 10
19.02.2020 17:00:00 6,0 4,0 18 10 S 10
19.02.2020 16:00:00 6,0 4,0 18 10 SSW 10
19.02.2020 15:00:00 6,0 3,0 21 11 SSW 10
19.02.2020 14:00:00 6,0 3,0 22 12 SW 10
19.02.2020 13:00:00 6,0 2,0 15 8 SSW 10
19.02.2020 12:00:00 6,0 1,0 16 9 SW 10
19.02.2020 11:00:00 5,0 3,0 22 12 WSW 10
19.02.2020 10:00:00 5,0 3,0 18 10 WSW 10
19.02.2020 09:00:00 4,0 2,0 16 9 WSW 10
19.02.2020 08:00:00 3,0 2,0 29 16 W 10

tt = temperature
td = dewpoint
ff = wind speed
dd = wind direction
vv = visibility

Next stations